createdAt,value
2018-10-03T00:01:33.439Z,11.17
2018-10-03T00:04:02.631Z,10.77
2018-10-03T00:06:31.922Z,10.70
2018-10-03T00:09:01.180Z,12.00
2018-10-03T00:11:30.593Z,11.40
2018-10-03T00:13:59.835Z,10.77
2018-10-03T00:16:28.968Z,11.83
2018-10-03T00:18:58.084Z,10.40
2018-10-03T00:21:27.498Z,11.30
2018-10-03T00:23:56.870Z,11.40
2018-10-03T00:26:26.231Z,10.93
2018-10-03T00:28:55.680Z,11.40
2018-10-03T00:31:24.627Z,11.63
2018-10-03T00:33:54.028Z,10.97
2018-10-03T00:36:23.408Z,12.47
2018-10-03T00:38:52.727Z,11.80
2018-10-03T00:41:22.071Z,12.20
2018-10-03T00:43:51.363Z,11.80
2018-10-03T00:46:20.640Z,11.40
2018-10-03T00:48:49.894Z,11.47
2018-10-03T00:51:19.062Z,10.77
2018-10-03T00:53:48.322Z,11.30
2018-10-03T00:56:17.263Z,11.27
2018-10-03T00:58:46.768Z,11.47
2018-10-03T01:01:15.699Z,11.60
2018-10-03T01:03:45.070Z,10.97
2018-10-03T01:06:14.335Z,10.77
2018-10-03T01:08:43.555Z,10.87
2018-10-03T01:11:12.479Z,8.67
2018-10-03T01:13:41.944Z,8.23
2018-10-03T01:16:11.250Z,8.90
2018-10-03T01:18:40.406Z,8.50
2018-10-03T01:21:09.789Z,8.60
2018-10-03T01:23:39.359Z,9.07
2018-10-03T01:26:08.650Z,8.90
2018-10-03T01:28:37.883Z,8.40
2018-10-03T01:31:06.947Z,8.43
2018-10-03T01:33:35.935Z,8.50
2018-10-03T01:36:04.983Z,8.40
2018-10-03T01:38:34.330Z,8.83
2018-10-03T01:41:03.711Z,8.83
2018-10-03T01:43:33.068Z,8.50
2018-10-03T01:46:02.335Z,9.23
2018-10-03T01:48:31.303Z,9.03
2018-10-03T01:51:00.565Z,9.37
2018-10-03T01:53:29.547Z,9.27
2018-10-03T01:55:58.470Z,8.80
2018-10-03T01:58:27.676Z,9.57
2018-10-03T02:00:56.547Z,11.53
2018-10-03T02:03:25.736Z,10.83
2018-10-03T02:05:54.982Z,10.93
2018-10-03T02:08:24.476Z,10.50
2018-10-03T02:10:53.889Z,12.17
2018-10-03T02:13:23.353Z,10.77
2018-10-03T02:15:52.533Z,10.90
2018-10-03T02:18:21.870Z,10.40
2018-10-03T02:20:50.971Z,11.90
2018-10-03T02:23:20.240Z,13.33
2018-10-03T02:25:49.275Z,14.23
2018-10-03T02:28:18.214Z,15.47
2018-10-03T02:30:47.507Z,14.63
2018-10-03T02:33:16.863Z,15.40
2018-10-03T02:35:46.164Z,15.33
2018-10-03T02:38:15.159Z,13.53
2018-10-03T02:40:44.449Z,14.50
2018-10-03T02:43:13.701Z,14.47
2018-10-03T02:45:42.920Z,13.10
2018-10-03T02:48:11.905Z,12.73
2018-10-03T02:50:41.084Z,12.80
2018-10-03T02:53:10.075Z,13.73
2018-10-03T02:55:39.188Z,14.03
2018-10-03T02:58:08.366Z,15.00
2018-10-03T03:00:37.601Z,17.70
2018-10-03T03:03:06.918Z,18.13
2018-10-03T03:05:36.127Z,19.60
2018-10-03T03:08:05.348Z,20.87
2018-10-03T03:10:34.593Z,21.23
2018-10-03T03:13:03.754Z,22.37
2018-10-03T03:15:33.048Z,22.87
2018-10-03T03:18:02.441Z,22.03
2018-10-03T03:20:31.401Z,21.53
2018-10-03T03:23:00.646Z,22.17
2018-10-03T03:25:29.778Z,21.83
2018-10-03T03:27:58.728Z,21.63
2018-10-03T03:30:27.989Z,22.53
2018-10-03T03:32:56.938Z,21.73
2018-10-03T03:35:26.170Z,20.47
2018-10-03T03:37:55.131Z,20.13
2018-10-03T03:40:24.060Z,20.70
2018-10-03T03:42:53.255Z,21.87
2018-10-03T03:45:22.596Z,20.63
2018-10-03T03:47:51.731Z,21.33
2018-10-03T03:50:20.808Z,21.07
2018-10-03T03:52:49.676Z,20.30
2018-10-03T03:55:18.945Z,20.57
2018-10-03T03:57:48.230Z,20.30
2018-10-03T04:00:17.583Z,20.37
2018-10-03T04:02:46.873Z,19.93
2018-10-03T04:05:16.076Z,19.10
2018-10-03T04:07:45.370Z,19.67
2018-10-03T04:10:14.753Z,19.40
2018-10-03T04:12:43.806Z,19.53
2018-10-03T04:15:12.887Z,20.47
2018-10-03T04:17:42.175Z,20.37
2018-10-03T04:20:11.455Z,19.77
2018-10-03T04:22:40.818Z,19.87
2018-10-03T04:25:10.160Z,20.30
2018-10-03T04:27:39.407Z,20.57
2018-10-03T04:30:08.673Z,19.43
2018-10-03T04:32:37.544Z,21.60
2018-10-03T04:35:06.763Z,20.77
2018-10-03T04:37:36.159Z,21.63
2018-10-03T04:40:05.539Z,19.87
2018-10-03T04:42:34.893Z,20.03
2018-10-03T04:45:04.183Z,19.17
2018-10-03T04:47:33.343Z,17.73
2018-10-03T04:50:02.387Z,17.77
2018-10-03T04:52:31.435Z,15.83
2018-10-03T04:55:00.570Z,13.37
2018-10-03T04:57:29.703Z,14.17
2018-10-03T04:59:58.903Z,13.20
2018-10-03T05:02:28.149Z,13.03
2018-10-03T05:04:57.551Z,13.03
2018-10-03T05:07:26.716Z,12.70
2018-10-03T05:09:55.835Z,11.93
2018-10-03T05:12:25.075Z,12.47
2018-10-03T05:14:54.139Z,12.70
2018-10-03T05:17:23.442Z,12.50
2018-10-03T05:19:52.589Z,14.43
2018-10-03T05:22:21.787Z,15.00
2018-10-03T05:24:51.032Z,14.70
2018-10-03T05:27:20.284Z,14.90
2018-10-03T05:29:49.579Z,16.87
2018-10-03T05:32:18.619Z,16.73
2018-10-03T05:34:47.816Z,16.87
2018-10-03T05:37:17.119Z,16.53
2018-10-03T05:39:46.302Z,16.47
2018-10-03T05:42:15.820Z,15.70
2018-10-03T05:44:45.024Z,15.53
2018-10-03T05:47:14.074Z,15.10
2018-10-03T05:49:43.241Z,13.90
2018-10-03T05:52:12.531Z,14.40
2018-10-03T05:54:41.786Z,13.07
2018-10-03T05:57:10.955Z,12.83
2018-10-03T05:59:40.202Z,11.87
2018-10-03T06:02:09.559Z,12.10
2018-10-03T06:04:38.525Z,12.27
2018-10-03T06:07:07.386Z,11.83
2018-10-03T06:09:36.427Z,12.50
2018-10-03T06:12:05.794Z,11.67
2018-10-03T06:14:34.759Z,11.43
2018-10-03T06:17:03.973Z,11.10
2018-10-03T06:19:33.355Z,11.97
2018-10-03T06:22:02.436Z,12.13
2018-10-03T06:24:31.751Z,12.47
2018-10-03T06:27:00.946Z,12.77
2018-10-03T06:29:30.268Z,13.87
2018-10-03T06:31:59.558Z,14.07
2018-10-03T06:34:29.062Z,13.83
2018-10-03T06:36:58.363Z,14.43
2018-10-03T06:39:27.809Z,13.43
2018-10-03T06:41:56.962Z,12.97
2018-10-03T06:44:26.306Z,12.70
2018-10-03T06:46:55.520Z,12.93
2018-10-03T06:49:24.661Z,12.67
2018-10-03T06:51:53.832Z,13.97
2018-10-03T06:54:22.819Z,12.80
2018-10-03T06:56:51.771Z,13.37
2018-10-03T06:59:20.930Z,13.77
2018-10-03T07:01:50.387Z,14.47
2018-10-03T07:04:19.518Z,14.47
2018-10-03T07:06:48.539Z,13.80
2018-10-03T07:09:17.488Z,14.00
2018-10-03T07:11:46.616Z,14.37
2018-10-03T07:14:15.952Z,15.10
2018-10-03T07:16:45.295Z,14.67
2018-10-03T07:19:14.544Z,16.07
2018-10-03T07:21:43.547Z,14.70
2018-10-03T07:24:12.418Z,14.83
2018-10-03T07:26:41.740Z,15.70
2018-10-03T07:29:10.792Z,17.03
2018-10-03T07:31:40.044Z,14.90
2018-10-03T07:34:09.172Z,15.93
2018-10-03T07:36:38.062Z,16.33
2018-10-03T07:39:09.374Z,15.07
2018-10-03T07:41:38.758Z,15.47
2018-10-03T07:44:07.976Z,14.20
2018-10-03T07:46:36.792Z,14.73
2018-10-03T07:49:05.995Z,16.13
2018-10-03T07:51:35.335Z,16.83
2018-10-03T07:54:04.656Z,15.43
2018-10-03T07:56:33.900Z,15.50
2018-10-03T07:59:03.402Z,15.60
2018-10-03T08:01:32.263Z,16.03
2018-10-03T08:04:01.280Z,15.87
2018-10-03T08:06:30.636Z,15.43
2018-10-03T08:08:59.788Z,14.93
2018-10-03T08:11:29.168Z,16.73
2018-10-03T08:13:58.224Z,16.90
2018-10-03T08:16:27.411Z,16.20
2018-10-03T08:18:56.403Z,16.43
2018-10-03T08:21:25.533Z,15.40
2018-10-03T08:23:54.959Z,15.20
2018-10-03T08:26:24.352Z,15.93
2018-10-03T08:28:53.473Z,16.10
2018-10-03T08:31:22.488Z,14.90
2018-10-03T08:33:51.787Z,15.60
2018-10-03T08:36:21.130Z,16.13
2018-10-03T08:38:50.249Z,16.27
2018-10-03T08:41:19.546Z,15.53
2018-10-03T08:43:48.843Z,15.77
2018-10-03T08:46:18.329Z,14.17
2018-10-03T08:48:47.571Z,16.33
2018-10-03T08:51:16.807Z,16.10
2018-10-03T08:53:46.140Z,15.87
2018-10-03T08:56:15.583Z,16.10
2018-10-03T08:58:44.771Z,15.50
2018-10-03T09:01:14.129Z,15.33
2018-10-03T09:03:43.475Z,15.67
2018-10-03T09:06:12.831Z,16.17
2018-10-03T09:08:41.971Z,14.67
2018-10-03T09:11:11.334Z,14.20
2018-10-03T09:13:40.826Z,14.50
2018-10-03T09:16:10.336Z,14.87
2018-10-03T09:18:39.212Z,14.30
2018-10-03T09:21:08.648Z,14.63
2018-10-03T09:23:38.111Z,14.00
2018-10-03T09:26:07.498Z,13.83
2018-10-03T09:28:36.739Z,13.30
2018-10-03T09:31:05.980Z,14.20
2018-10-03T09:33:34.924Z,14.07
2018-10-03T09:36:04.153Z,12.73
2018-10-03T09:38:33.372Z,12.07
2018-10-03T09:41:02.289Z,11.83
2018-10-03T09:43:31.564Z,11.97
2018-10-03T09:46:00.861Z,12.83
2018-10-03T09:48:30.071Z,12.83
2018-10-03T09:50:59.156Z,11.63
2018-10-03T09:53:28.306Z,12.57
2018-10-03T09:55:57.543Z,11.97
2018-10-03T09:58:26.627Z,12.33
2018-10-03T10:01:01.085Z,12.00
2018-10-03T10:03:30.308Z,12.47
2018-10-03T10:05:59.606Z,12.23
2018-10-03T10:08:28.847Z,11.97
2018-10-03T10:10:58.270Z,12.60
2018-10-03T10:13:27.104Z,12.10
2018-10-03T10:15:56.161Z,11.30
2018-10-03T10:18:25.126Z,10.80
2018-10-03T10:20:54.414Z,11.33
2018-10-03T10:23:23.627Z,11.00
2018-10-03T10:25:52.919Z,10.77
2018-10-03T10:28:21.907Z,10.23
2018-10-03T10:30:50.725Z,10.60
2018-10-03T10:33:19.767Z,10.07
2018-10-03T10:35:49.045Z,12.17
2018-10-03T10:38:18.139Z,10.90
2018-10-03T10:40:47.524Z,9.90
2018-10-03T10:43:17.207Z,9.93
2018-10-03T10:45:46.405Z,9.93
2018-10-03T10:48:15.721Z,9.77
2018-10-03T10:50:44.672Z,10.47
2018-10-03T10:53:14.129Z,10.40
2018-10-03T10:55:43.446Z,10.50
2018-10-03T10:58:12.936Z,9.93
2018-10-03T11:00:41.944Z,11.00
2018-10-03T11:03:10.995Z,10.67
2018-10-03T11:05:40.226Z,9.50
2018-10-03T11:08:09.622Z,9.68
2018-10-03T11:10:38.515Z,9.80
2018-10-03T11:13:07.771Z,9.90
2018-10-03T11:15:36.791Z,9.77
2018-10-03T11:18:05.815Z,10.03
2018-10-03T11:20:34.731Z,9.75
2018-10-03T11:23:03.987Z,9.40
2018-10-03T11:25:32.878Z,9.93
2018-10-03T11:28:02.007Z,9.60
2018-10-03T11:30:30.996Z,9.30
2018-10-03T11:32:59.999Z,9.18
2018-10-03T11:35:28.960Z,8.55
2018-10-03T11:37:58.657Z,8.83
2018-10-03T11:40:27.676Z,8.93
2018-10-03T11:42:56.487Z,8.53
2018-10-03T11:45:25.422Z,8.70
2018-10-03T11:47:54.929Z,9.15
2018-10-03T11:50:23.906Z,8.50
2018-10-03T11:52:52.860Z,9.38
2018-10-03T11:55:21.847Z,8.68
2018-10-03T11:57:50.835Z,8.28
2018-10-03T12:00:19.776Z,9.53
2018-10-03T12:02:48.767Z,9.95
2018-10-03T12:05:17.803Z,9.73
2018-10-03T12:07:46.863Z,8.90
2018-10-03T12:10:15.754Z,8.77
2018-10-03T12:12:45.043Z,9.40
2018-10-03T12:15:14.035Z,9.67
2018-10-03T12:17:42.939Z,9.63
2018-10-03T12:20:11.875Z,10.77
2018-10-03T12:22:40.820Z,10.53
2018-10-03T12:25:24.250Z,10.23
2018-10-03T12:27:53.455Z,11.47
2018-10-03T12:30:22.536Z,10.77
2018-10-03T12:32:51.596Z,11.67
2018-10-03T12:35:25.666Z,9.93
2018-10-03T12:37:54.669Z,10.67
2018-10-03T12:40:23.788Z,9.87
2018-10-03T12:42:52.795Z,9.93
2018-10-03T12:45:21.810Z,10.07
2018-10-03T12:47:50.864Z,9.83
2018-10-03T12:50:19.805Z,9.77
2018-10-03T12:52:49.003Z,9.30
2018-10-03T12:55:18.504Z,9.97
2018-10-03T12:57:47.967Z,8.80
2018-10-03T13:00:16.963Z,9.50
2018-10-03T13:02:45.839Z,8.57
2018-10-03T13:05:14.806Z,8.97
2018-10-03T13:07:44.011Z,8.57
2018-10-03T13:10:12.884Z,8.50
2018-10-03T13:12:41.805Z,8.67
2018-10-03T13:15:10.853Z,9.33
2018-10-03T13:17:39.843Z,9.63
2018-10-03T13:20:09.039Z,9.30
2018-10-03T13:22:38.439Z,10.00
2018-10-03T13:25:07.367Z,9.83
2018-10-03T13:27:36.415Z,9.73
2018-10-03T13:30:05.569Z,9.73
2018-10-03T13:32:34.591Z,9.90
2018-10-03T13:35:03.616Z,9.57
2018-10-03T13:37:32.602Z,10.10
2018-10-03T13:40:01.608Z,9.60
2018-10-03T13:42:30.995Z,10.20
2018-10-03T13:44:59.875Z,9.47
2018-10-03T13:47:28.836Z,9.37
2018-10-03T13:49:57.902Z,9.87
2018-10-03T13:52:26.959Z,9.40
2018-10-03T13:54:55.895Z,9.37
2018-10-03T13:57:24.836Z,9.40
2018-10-03T13:59:53.779Z,8.60
2018-10-03T14:02:22.723Z,9.20
2018-10-03T14:04:51.559Z,8.43
2018-10-03T14:07:20.583Z,9.63
2018-10-03T14:09:49.550Z,8.43
2018-10-03T14:12:18.591Z,8.97
2018-10-03T14:14:47.473Z,9.13
2018-10-03T14:17:16.763Z,8.50
2018-10-03T14:19:45.763Z,8.50
2018-10-03T14:22:14.709Z,8.60
2018-10-03T14:24:43.619Z,8.30
2018-10-03T14:27:12.543Z,8.43
2018-10-03T14:29:41.508Z,9.00
2018-10-03T14:32:10.445Z,8.90
2018-10-03T14:34:39.475Z,8.90
2018-10-03T14:37:08.715Z,9.27
2018-10-03T14:39:37.714Z,9.50
2018-10-03T14:42:06.931Z,9.80
2018-10-03T14:44:35.922Z,9.50
2018-10-03T14:47:05.185Z,9.50
2018-10-03T14:49:34.697Z,10.03
2018-10-03T14:52:03.718Z,10.40
2018-10-03T14:54:32.687Z,10.40
2018-10-03T14:57:01.912Z,9.97
2018-10-03T14:59:30.920Z,10.60
2018-10-03T15:02:00.122Z,10.60
2018-10-03T15:04:29.302Z,10.50
2018-10-03T15:06:58.667Z,10.53
2018-10-03T15:09:28.013Z,10.17
2018-10-03T15:11:57.151Z,9.97
2018-10-03T15:14:26.620Z,15.90
2018-10-03T15:16:54.671Z,14.63
2018-10-03T15:19:23.875Z,13.77
2018-10-03T15:21:52.813Z,14.17
2018-10-03T15:24:21.810Z,12.73
2018-10-03T15:26:50.835Z,12.67
2018-10-03T15:29:20.188Z,12.70
2018-10-03T15:31:49.658Z,11.90
2018-10-03T15:34:18.855Z,12.40
2018-10-03T15:36:47.823Z,11.80
2018-10-03T15:39:16.827Z,11.23
2018-10-03T15:41:46.101Z,10.97
2018-10-03T15:44:15.372Z,11.13
2018-10-03T15:46:44.701Z,11.43
2018-10-03T15:49:13.935Z,10.73
2018-10-03T15:51:42.928Z,11.53
2018-10-03T15:54:11.849Z,12.47
2018-10-03T15:56:41.015Z,11.40
2018-10-03T15:59:10.216Z,12.37
2018-10-03T16:01:39.627Z,11.30
2018-10-03T16:04:08.852Z,11.50
2018-10-03T16:06:38.080Z,10.60
2018-10-03T16:09:08.615Z,10.33
2018-10-03T16:11:37.778Z,11.50
2018-10-03T16:14:07.049Z,10.90
2018-10-03T16:16:36.325Z,10.50
2018-10-03T16:19:05.692Z,10.80
2018-10-03T16:21:34.918Z,10.90
2018-10-03T16:24:04.296Z,10.73
2018-10-03T16:26:33.286Z,11.90
2018-10-03T16:29:02.779Z,13.90
2018-10-03T16:31:32.312Z,14.97
2018-10-03T16:34:01.788Z,16.00
2018-10-03T16:36:31.140Z,17.03
2018-10-03T16:39:00.460Z,13.93
2018-10-03T16:41:29.420Z,12.23
2018-10-03T16:43:58.539Z,12.30
2018-10-03T16:46:27.672Z,13.97
2018-10-03T16:48:57.136Z,17.07
2018-10-03T16:51:26.862Z,16.80
2018-10-03T16:53:56.124Z,17.17
2018-10-03T16:56:25.503Z,12.30
2018-10-03T16:58:54.735Z,12.63
2018-10-03T17:01:24.199Z,13.60
2018-10-03T17:03:53.328Z,15.03
2018-10-03T17:06:22.659Z,16.27
2018-10-03T17:08:52.917Z,16.60
2018-10-03T17:11:22.387Z,20.67
2018-10-03T17:14:02.446Z,20.17
2018-10-03T17:16:31.955Z,16.57
2018-10-03T17:19:01.098Z,14.43
2018-10-03T17:21:30.478Z,12.43
2018-10-03T17:23:59.848Z,12.27
2018-10-03T17:26:28.951Z,14.50
2018-10-03T17:28:58.399Z,13.37
2018-10-03T17:31:27.647Z,15.30
2018-10-03T17:33:57.053Z,17.37
2018-10-03T17:36:26.348Z,11.80
2018-10-03T17:38:55.535Z,10.90
2018-10-03T17:41:25.583Z,10.50
2018-10-03T17:43:55.136Z,10.00
2018-10-03T17:46:24.571Z,11.07
2018-10-03T17:48:54.218Z,12.67
2018-10-03T17:51:23.441Z,13.43
2018-10-03T17:53:52.358Z,13.30
2018-10-03T17:56:21.811Z,13.47
2018-10-03T17:58:51.287Z,13.67
2018-10-03T18:01:20.728Z,13.10
2018-10-03T18:03:49.859Z,11.57
2018-10-03T18:06:19.248Z,10.73
2018-10-03T18:08:48.773Z,10.70
2018-10-03T18:11:19.157Z,10.47
2018-10-03T18:13:48.719Z,10.13
2018-10-03T18:16:18.004Z,10.13
2018-10-03T18:18:47.452Z,10.17
2018-10-03T18:21:17.305Z,9.00
2018-10-03T18:23:47.048Z,9.70
2018-10-03T18:26:17.703Z,9.93
2018-10-03T18:28:46.957Z,9.70
2018-10-03T18:31:16.846Z,9.07
2018-10-03T18:33:46.546Z,8.53
2018-10-03T18:36:16.203Z,9.23
2018-10-03T18:38:48.251Z,8.90
2018-10-03T18:41:17.861Z,8.83
2018-10-03T18:43:47.488Z,8.27
2018-10-03T18:46:16.798Z,8.13
2018-10-03T18:48:46.677Z,7.17
2018-10-03T18:51:16.195Z,8.27
2018-10-03T18:53:46.283Z,6.43
2018-10-03T18:56:15.542Z,7.83
2018-10-03T18:58:44.804Z,7.10
2018-10-03T19:01:14.663Z,7.40
2018-10-03T19:03:43.764Z,6.10
2018-10-03T19:06:13.229Z,6.00
2018-10-03T19:08:42.143Z,6.47
2018-10-03T19:11:11.123Z,6.33
2018-10-03T19:13:40.328Z,6.23
2018-10-03T19:16:09.708Z,6.23
2018-10-03T19:18:38.891Z,5.20
2018-10-03T19:21:08.168Z,6.10
2018-10-03T19:23:37.100Z,5.57
2018-10-03T19:26:06.317Z,5.60
2018-10-03T19:28:35.451Z,5.40
2018-10-03T19:31:04.700Z,6.23
2018-10-03T19:33:34.089Z,6.47
2018-10-03T19:36:03.370Z,6.30
2018-10-03T19:38:32.739Z,6.40
2018-10-03T19:41:01.690Z,6.33
2018-10-03T19:43:31.134Z,6.30
2018-10-03T19:46:00.491Z,6.47
2018-10-03T19:48:29.618Z,5.97
2018-10-03T19:50:58.519Z,6.47
2018-10-03T19:53:31.987Z,6.53
2018-10-03T19:56:01.918Z,6.40
2018-10-03T19:58:30.972Z,6.87
2018-10-03T20:00:59.960Z,6.07
2018-10-03T20:03:29.052Z,6.33
2018-10-03T20:05:58.275Z,5.53
2018-10-03T20:08:27.267Z,5.97
2018-10-03T20:10:56.463Z,6.17
2018-10-03T20:13:25.435Z,5.77
2018-10-03T20:15:54.705Z,5.90
2018-10-03T20:18:24.091Z,5.93
2018-10-03T20:20:53.526Z,5.27
2018-10-03T20:23:22.923Z,5.70
2018-10-03T20:25:52.209Z,5.33
2018-10-03T20:28:21.560Z,4.87
2018-10-03T20:30:50.867Z,5.60
2018-10-03T20:33:19.768Z,5.07
2018-10-03T20:35:49.151Z,4.53
2018-10-03T20:38:18.004Z,5.10
2018-10-03T20:40:47.523Z,5.43
2018-10-03T20:43:16.739Z,5.13
2018-10-03T20:45:45.955Z,5.10
2018-10-03T20:48:15.282Z,5.00
2018-10-03T20:50:44.340Z,4.73
2018-10-03T20:53:13.619Z,4.93
2018-10-03T20:55:42.858Z,4.53
2018-10-03T20:58:11.759Z,4.43
2018-10-03T21:00:41.030Z,4.70
2018-10-03T21:03:10.165Z,4.90
2018-10-03T21:05:39.425Z,4.27
2018-10-03T21:08:08.804Z,4.47
2018-10-03T21:10:37.950Z,4.43
2018-10-03T21:13:07.307Z,4.10
2018-10-03T21:15:36.482Z,4.43
2018-10-03T21:18:05.906Z,3.90
2018-10-03T21:20:34.983Z,4.93
2018-10-03T21:23:03.844Z,4.50
2018-10-03T21:25:33.336Z,4.40
2018-10-03T21:28:02.134Z,4.37
2018-10-03T21:30:31.429Z,4.00
2018-10-03T21:33:00.590Z,4.33
2018-10-03T21:35:29.811Z,4.20
2018-10-03T21:37:58.967Z,4.10
2018-10-03T21:40:28.323Z,3.90
2018-10-03T21:42:57.195Z,3.90
2018-10-03T21:45:26.498Z,4.77
2018-10-03T21:47:55.699Z,3.80
2018-10-03T21:50:24.779Z,4.20
2018-10-03T21:52:54.075Z,4.20
2018-10-03T21:55:23.095Z,4.50
2018-10-03T21:57:52.344Z,4.13
2018-10-03T22:00:21.575Z,4.30
2018-10-03T22:02:50.735Z,4.73
2018-10-03T22:05:19.656Z,4.10
2018-10-03T22:07:48.860Z,4.60
2018-10-03T22:10:18.121Z,4.47
2018-10-03T22:12:47.319Z,4.00
2018-10-03T22:15:16.387Z,4.50
2018-10-03T22:17:45.643Z,4.10
2018-10-03T22:20:14.998Z,3.90
2018-10-03T22:22:44.211Z,4.10
2018-10-03T22:25:13.397Z,4.20
2018-10-03T22:27:42.531Z,3.93
2018-10-03T22:30:11.795Z,4.17
2018-10-03T22:32:40.677Z,4.03
2018-10-03T22:35:09.830Z,4.00
2018-10-03T22:37:39.071Z,3.70
2018-10-03T22:40:08.072Z,4.20
2018-10-03T22:42:37.199Z,4.40
2018-10-03T22:45:06.315Z,4.60
2018-10-03T22:47:35.302Z,3.93
2018-10-03T22:50:04.546Z,4.00
2018-10-03T22:52:33.803Z,3.50
2018-10-03T22:55:03.052Z,3.73
2018-10-03T22:57:31.907Z,4.37
2018-10-03T23:00:01.167Z,4.70
2018-10-03T23:02:30.688Z,4.30
2018-10-03T23:04:59.927Z,3.87
2018-10-03T23:07:29.271Z,3.90
2018-10-03T23:09:58.136Z,4.30
2018-10-03T23:12:27.476Z,3.93
2018-10-03T23:14:56.663Z,3.83
2018-10-03T23:17:25.707Z,4.37
2018-10-03T23:19:54.955Z,3.80
2018-10-03T23:22:24.303Z,3.63
2018-10-03T23:24:53.568Z,3.37
2018-10-03T23:27:22.661Z,3.60
2018-10-03T23:29:51.806Z,3.60
2018-10-03T23:32:21.104Z,3.57
2018-10-03T23:34:50.435Z,3.30
2018-10-03T23:37:19.735Z,3.30
2018-10-03T23:39:48.953Z,3.33
2018-10-03T23:42:18.198Z,3.13
2018-10-03T23:44:47.647Z,3.13
2018-10-03T23:47:16.948Z,3.37
2018-10-03T23:49:45.756Z,3.27
2018-10-03T23:52:14.600Z,3.20
2018-10-03T23:54:43.803Z,3.67
2018-10-03T23:57:13.120Z,3.60
2018-10-03T23:59:42.168Z,3.30
